Date,TemperatureHighF,TemperatureAvgF,TemperatureLowF,DewpointHighF,DewpointAvgF,DewpointLowF,HumidityHigh,HumidityAvg,HumidityLow,PressureMaxIn,PressureMinIn,WindSpeedMaxMPH,WindSpeedAvgMPH,GustSpeedMaxMPH,PrecipitationSumIn
2013-1-1,21.6,10.0,-8.8,18.1,6.2,-12.8,92,84,80,30.39,30.10,20,6,20,0.00
2013-1-2,29.5,19.0,11.0,26.3,16.0,7.8,92,88,82,30.22,29.99,31,7,31,0.01
2013-1-3,18.8,10.9,3.5,14.7,6.9,-0.2,87,84,80,30.40,30.20,29,12,29,0.00
2013-1-4,30.2,21.6,9.9,21.4,15.1,6.3,87,76,66,30.20,30.11,22,6,22,0.00
2013-1-5,25.5,14.4,6.0,18.0,9.8,2.1,87,82,72,30.17,29.93,29,8,29,0.00
2013-1-6,22.7,15.1,8.3,17.9,10.9,3.8,92,83,75,30.32,30.01,30,7,30,0.00
2013-1-7,37.7,28.9,21.7,28.8,23.1,17.2,86,79,68,30.01,29.94,33,9,33,0.00
2013-1-8,35.3,24.1,15.1,29.5,20.7,12.2,92,87,79,30.01,29.77,21,7,21,0.00
2013-1-9,36.7,31.9,26.7,30.4,26.2,21.2,87,79,67,30.38,30.01,28,10,28,0.00
2013-1-10,36.4,32.8,29.0,32.1,28.3,23.7,95,84,72,30.29,29.69,23,12,23,0.16
2013-1-11,37.0,34.7,28.3,36.2,33.7,25.8,97,96,92,29.69,29.38,24,9,24,0.00
2013-1-12,27.8,11.9,3.5,25.8,6.5,-1.5,92,79,72,30.18,29.46,33,14,33,0.00
2013-1-13,7.9,4.7,0.5,3.1,-0.3,-4.2,92,79,70,30.36,30.15,21,10,21,0.00
2013-1-14,17.0,10.2,5.6,10.3,4.9,1.1,92,79,66,30.51,30.34,14,5,14,0.00
2013-1-15,29.7,19.6,8.8,20.9,13.1,4.9,85,76,55,30.35,29.88,25,9,25,0.00
2013-1-16,36.7,25.7,5.3,33.2,21.4,-1.6,92,84,73,30.33,29.73,25,13,25,0.04
2013-1-17,24.9,14.5,2.8,19.6,8.4,-3.8,90,76,64,30.47,30.30,19,6,20,0.00
2013-1-18,42.4,32.8,20.9,34.0,27.8,17.1,92,82,67,30.30,29.79,23,8,23,0.00
2013-1-19,39.2,25.3,3.2,33.5,19.9,-3.0,89,80,66,30.35,29.72,43,17,44,0.00
2013-1-20,9.9,3.9,-1.9,3.8,-2.0,-8.7,82,76,71,30.51,30.35,28,14,29,0.00
2013-1-21,-0.7,-4.5,-9.4,-6.7,-11.4,-16.5,83,71,66,30.50,30.42,33,14,33,0.00
2013-1-22,9.1,0.9,-7.1,3.7,-5.9,-12.4,79,73,63,30.52,30.32,13,3,13,0.00
2013-1-23,12.1,5.7,-6.1,9.1,0.5,-13.1,88,79,69,30.70,30.23,37,11,37,0.00
2013-1-24,14.3,4.4,-6.2,6.3,-5.2,-13.1,76,64,52,30.75,30.22,28,10,28,0.00
2013-1-25,21.8,11.8,1.3,16.6,4.6,-4.1,83,72,60,30.39,30.06,40,14,40,0.00
2013-1-26,26.2,12.6,-1.9,16.1,4.8,-6.0,84,71,57,30.41,30.11,26,7,26,0.00
2013-1-27,32.3,30.0,25.1,30.8,25.3,16.0,95,83,65,30.12,29.80,19,4,19,0.20
2013-1-28,32.6,30.8,28.3,31.5,29.6,27.0,96,95,94,29.91,29.62,0,0,0,0.10
2013-1-29,31.8,28.3,23.2,30.8,26.6,20.4,96,94,89,29.82,29.56,29,3,29,0.00
2013-1-30,23.2,12.8,0.1,20.5,8.6,-4.9,89,83,79,29.93,29.75,33,20,33,0.00
2013-1-31,1.0,-5.7,-9.3,-3.7,-11.2,-15.3,80,76,72,30.45,29.92,34,18,34,0.00
2013-2-1,14.3,1.1,-14.0,10.3,-4.6,-19.2,86,77,66,30.46,30.11,15,5,17,0.00
2013-2-2,18.2,9.0,-3.5,15.8,4.8,-7.6,91,83,63,30.28,30.01,32,6,32,0.00
2013-2-3,16.8,12.6,6.3,12.4,8.7,2.0,90,84,77,30.19,29.97,35,8,35,0.00
2013-2-4,22.4,10.2,-4.0,19.0,6.6,-7.6,96,85,76,30.14,29.80,24,6,24,0.00
2013-2-5,31.7,20.1,3.7,29.2,16.7,0.2,94,86,80,30.15,29.74,30,10,30,0.00
2013-2-6,38.1,23.4,0.1,32.5,19.9,-3.4,97,86,79,30.16,29.91,24,5,24,0.01
2013-2-7,26.6,23.4,18.4,23.4,20.8,15.4,93,90,83,30.32,29.99,20,10,20,0.00
2013-2-8,27.3,24.6,20.1,22.5,20.1,16.2,89,83,78,30.39,30.21,27,8,27,0.00
2013-2-9,33.2,28.9,24.8,29.9,26.1,22.3,91,89,87,30.22,29.87,30,14,30,0.00
2013-2-10,33.9,31.2,26.9,32.8,29.9,25.7,96,95,90,29.87,29.26,31,10,31,0.04
2013-2-11,27.2,22.1,18.4,26.0,19.6,15.2,95,90,86,30.12,29.47,38,20,38,0.00
2013-2-12,34.1,24.0,16.3,29.8,19.9,13.6,96,85,75,30.12,29.88,19,8,19,0.02
2013-2-13,38.7,30.2,20.0,32.1,25.9,16.5,92,84,72,29.88,29.60,29,8,29,0.02
2013-2-14,32.4,22.6,7.4,30.2,18.9,3.0,93,85,76,30.30,29.66,30,16,30,0.01
2013-2-15,15.2,9.2,3.7,9.7,5.0,0.2,93,83,76,30.43,30.30,19,9,19,0.00
2013-2-16,21.2,14.9,7.6,16.4,10.9,4.3,89,84,78,30.36,30.11,13,4,13,0.00
2013-2-17,35.7,26.5,13.0,30.1,22.1,10.4,91,83,76,30.12,29.58,33,13,33,0.00
2013-2-18,34.4,20.1,-0.3,31.2,16.3,-4.1,96,85,79,30.00,29.55,42,22,42,0.00
2013-2-19,-0.4,-3.4,-8.3,-4.1,-7.7,-12.8,84,81,79,30.54,30.00,39,21,39,0.00
2013-2-20,8.5,-2.0,-12.6,3.5,-6.5,-17.1,84,80,76,30.59,30.46,15,3,17,0.00
2013-2-21,19.2,12.1,2.0,15.3,7.3,-2.0,89,81,75,30.50,30.09,17,5,17,0.00
2013-2-22,23.3,19.3,15.2,22.5,17.0,12.7,98,91,89,30.09,29.94,18,8,18,0.02
2013-2-23,27.4,13.2,1.4,21.8,9.5,-1.9,96,85,74,30.03,29.93,15,4,15,0.00
2013-2-24,26.2,13.9,-2.4,22.0,10.4,-6.0,90,86,81,30.17,30.02,9,1,9,0.00
2013-2-25,30.4,23.4,20.4,24.6,20.4,17.4,93,88,78,30.17,30.07,9,2,9,0.00
2013-2-26,29.2,22.1,16.0,25.5,19.6,13.8,93,90,84,30.10,29.94,23,8,23,0.00
2013-2-27,28.3,20.7,16.3,22.7,17.0,12.4,90,86,78,30.12,29.95,30,16,30,0.00
2013-2-28,27.7,23.2,15.4,25.3,19.7,12.7,92,86,77,30.27,30.12,17,10,17,0.00
2013-3-1,24.5,20.8,12.5,18.9,15.6,8.9,92,80,72,30.42,30.25,16,7,17,0.00
2013-3-2,29.7,19.5,0.1,20.2,14.1,-3.4,89,79,61,30.41,30.19,14,3,14,0.00
2013-3-3,32.5,25.7,18.4,24.3,19.8,14.6,91,78,66,30.20,29.94,23,12,24,0.00
2013-3-4,29.1,25.9,23.4,26.4,23.9,21.2,94,92,89,30.02,29.86,22,11,25,0.00
2013-3-5,26.8,24.4,17.7,24.9,22.3,15.0,94,92,88,30.38,29.96,23,12,26,0.00
2013-3-6,26.0,19.6,10.9,21.0,15.8,8.2,92,85,75,30.49,30.38,19,5,22,0.03
2013-3-7,26.2,17.3,6.6,20.6,13.6,3.8,90,85,78,30.41,30.28,20,6,20,0.00
2013-3-8,35.7,25.3,11.7,31.5,21.7,9.0,92,86,79,30.33,30.06,21,7,24,0.05
2013-3-9,35.5,34.2,32.6,34.0,32.8,31.6,96,95,91,30.06,29.67,21,10,23,0.98
2013-3-10,33.1,29.0,26.6,31.8,26.0,22.1,95,88,83,30.00,29.81,29,19,31,0.00
2013-3-11,26.6,21.8,18.3,22.4,18.0,14.8,89,85,77,29.94,29.85,24,13,25,0.00
2013-3-12,29.3,23.7,17.8,25.0,19.1,14.1,89,82,71,30.31,29.90,35,19,35,0.01
2013-3-13,28.7,20.0,11.1,22.5,15.6,8.0,88,83,75,30.48,30.26,20,8,23,0.00
2013-3-14,41.9,31.8,26.1,32.0,26.9,22.4,92,82,65,30.26,30.03,22,4,22,0.00
2013-3-15,34.4,31.8,27.8,31.8,29.7,25.8,95,92,89,30.03,29.80,15,4,15,0.02
2013-3-16,29.1,19.0,9.2,27.6,15.2,4.3,94,85,76,30.32,29.91,24,13,24,0.00
2013-3-17,31.3,19.1,6.4,27.0,13.4,1.4,85,78,70,30.33,29.80,25,11,32,0.00
2013-3-18,31.5,20.6,10.4,29.8,16.5,5.1,94,84,78,30.00,29.65,39,22,39,0.01
2013-3-19,19.1,12.2,7.1,11.6,5.6,1.1,80,74,67,30.37,30.00,31,17,31,0.00
2013-3-20,18.0,11.4,5.5,9.6,4.7,0.5,81,74,63,30.40,30.23,30,17,33,0.00
2013-3-21,25.1,13.9,3.5,14.3,7.0,-0.8,92,74,58,30.23,30.11,11,3,13,0.00
2013-3-22,30.3,20.2,8.2,19.8,13.6,5.1,89,76,57,30.17,30.11,10,1,11,0.00
2013-3-23,28.8,23.0,16.8,21.8,17.8,13.7,88,81,68,30.23,30.12,16,7,18,0.00
2013-3-24,31.2,25.1,19.7,26.8,21.8,17.0,93,87,76,30.18,30.04,23,13,25,0.00
2013-3-25,31.7,26.9,21.9,25.8,22.1,17.1,92,82,73,30.33,30.10,27,16,28,0.00
2013-3-26,33.0,22.1,15.6,26.4,18.1,12.2,90,84,75,30.38,30.32,18,8,22,0.00
2013-3-27,40.2,30.9,19.7,30.1,25.6,17.8,94,82,63,30.38,30.31,10,3,16,0.01
2013-3-28,47.9,37.3,29.2,39.0,31.8,25.8,89,81,68,30.35,30.24,18,6,18,0.00
2013-3-29,55.9,42.7,32.3,46.2,37.4,29.7,96,82,63,30.27,30.00,25,8,25,0.00
2013-3-30,49.7,42.1,32.6,44.8,38.5,30.6,93,87,79,30.01,29.89,25,9,25,0.01
2013-3-31,35.2,31.6,23.0,32.2,25.8,15.4,95,80,59,30.19,29.87,33,19,38,0.00
2013-4-1,32.5,24.7,18.5,21.4,16.7,12.3,82,71,58,30.35,30.19,23,14,29,0.00
2013-4-2,36.5,28.4,21.0,23.8,20.3,18.2,89,73,49,30.39,30.32,16,5,19,0.00
2013-4-3,52.0,37.1,23.1,37.6,28.0,18.8,87,71,55,30.40,30.08,31,12,33,0.00
2013-4-4,47.9,40.1,29.7,35.5,31.7,26.3,87,72,56,30.21,30.03,23,13,27,0.00
2013-4-5,43.3,34.4,27.1,33.1,28.1,23.3,90,78,62,30.24,29.80,21,9,31,0.00
2013-4-6,56.8,44.8,34.8,47.4,39.1,32.1,91,81,68,29.81,29.50,31,14,31,0.09
2013-4-7,48.6,38.6,31.4,43.7,35.2,29.4,94,88,72,29.95,29.71,21,7,21,0.16
2013-4-8,48.8,44.1,40.2,46.8,42.3,37.4,97,93,89,30.02,29.64,21,6,21,0.29
2013-4-9,40.4,34.9,31.0,37.4,32.2,29.2,95,90,82,30.16,29.95,28,10,29,0.92
2013-4-10,32.7,31.2,29.2,32.0,29.5,27.4,100,93,88,30.16,29.87,33,9,33,0.29
2013-4-11,34.7,32.2,29.7,32.3,30.8,28.7,96,94,90,29.89,29.66,20,9,20,0.67
2013-4-12,32.3,29.4,26.1,29.8,27.2,24.9,96,91,83,29.92,29.70,22,13,23,0.09
2013-4-13,40.5,30.8,26.8,28.4,26.2,24.3,94,84,61,29.97,29.91,21,8,21,0.00
2013-4-14,37.2,33.3,30.2,35.1,30.6,26.2,95,90,80,29.92,29.37,28,12,28,0.07
2013-4-15,38.4,34.6,30.3,31.5,29.1,25.3,85,80,74,30.06,29.53,38,18,38,0.00
2013-4-16,40.9,34.5,29.2,32.5,29.0,25.2,87,80,70,30.34,30.05,19,8,19,0.00
2013-4-17,40.5,35.8,32.6,35.6,32.3,29.9,96,87,79,30.33,29.91,21,8,21,0.23
2013-4-18,32.8,31.6,30.3,31.7,30.3,29.3,96,95,92,29.94,29.64,33,16,33,0.16
2013-4-19,32.0,29.0,25.2,29.5,26.8,22.8,96,92,86,30.08,29.65,33,18,33,0.02
2013-4-20,36.9,29.2,18.4,30.8,22.5,15.7,91,77,52,30.33,30.08,19,6,19,0.00
2013-4-21,51.4,40.9,32.9,46.3,36.9,30.6,93,86,77,30.31,30.01,27,12,27,0.09
2013-4-22,38.6,34.2,29.9,35.5,31.4,28.6,96,90,81,30.23,30.13,24,11,24,0.13
2013-4-23,36.7,29.6,22.0,28.6,24.7,19.0,95,82,61,30.26,30.13,25,14,25,0.01
2013-4-24,47.1,35.6,25.8,35.4,29.1,22.7,91,78,53,30.13,29.96,33,12,33,0.03
2013-4-25,55.2,40.1,27.2,40.0,30.2,22.4,89,69,47,30.25,30.01,24,10,24,0.00
2013-4-26,70.7,56.9,46.7,48.7,41.3,36.2,74,58,33,30.12,29.92,32,10,32,0.00
2013-4-27,75.3,57.4,35.9,48.0,39.2,32.7,92,57,25,30.13,29.85,22,4,22,0.00
2013-4-28,84.5,65.0,49.2,52.4,47.8,43.2,85,58,26,29.85,29.60,32,14,32,0.01
2013-4-29,74.4,60.3,44.1,56.2,47.4,38.8,87,65,42,29.80,29.44,24,7,24,0.00
2013-4-30,67.7,62.6,54.7,60.0,45.3,30.8,82,56,27,29.96,29.33,33,14,33,0.00
2013-5-1,54.5,38.0,30.4,37.8,31.8,28.9,100,79,49,30.51,29.94,31,13,31,0.47
2013-5-2,47.7,39.5,33.8,30.7,27.9,23.6,81,64,43,30.61,30.44,33,16,33,0.00
2013-5-3,43.3,35.7,29.9,34.0,28.2,23.8,91,75,54,30.45,30.16,25,11,25,0.03
2013-5-4,41.5,36.9,32.9,40.5,34.9,30.8,98,93,91,30.21,30.12,21,10,21,0.06
2013-5-5,54.6,45.5,38.9,48.6,42.4,37.9,96,89,78,30.20,30.11,18,8,18,0.00
2013-5-6,69.0,55.0,42.3,54.1,47.6,40.2,93,78,57,30.14,30.01,17,5,17,0.00
2013-5-7,75.9,61.1,43.6,54.8,47.6,41.8,96,65,35,30.06,29.92,24,3,24,0.00
2013-5-8,63.0,58.6,55.0,57.0,53.6,47.3,93,84,63,29.96,29.91,16,5,16,0.05
2013-5-9,62.7,55.0,45.0,55.9,51.2,35.5,96,87,69,30.08,29.92,27,10,27,0.49
2013-5-10,65.0,51.1,36.4,46.1,36.1,30.5,80,59,32,30.12,29.91,30,6,30,0.00
2013-5-11,54.4,46.8,38.3,42.9,29.8,21.9,82,54,32,30.22,29.96,41,20,41,0.00
2013-5-12,59.9,45.9,29.3,29.3,24.7,21.4,73,46,25,30.27,30.10,23,8,23,0.00
2013-5-13,86.2,62.2,39.9,54.6,41.1,26.5,70,47,32,30.11,29.64,35,10,35,0.00
2013-5-14,98.2,77.5,51.9,58.8,48.9,37.1,78,41,21,29.70,29.43,36,13,36,0.00
2013-5-15,76.0,63.2,51.2,56.6,47.8,41.7,84,59,35,29.91,29.70,30,5,30,0.13
2013-5-16,84.6,68.9,48.9,54.8,47.2,43.5,88,51,25,29.88,29.74,15,2,15,0.02
2013-5-17,70.5,63.5,60.5,63.9,60.1,54.3,96,89,73,29.88,29.81,21,7,21,0.22
2013-5-18,81.6,71.7,60.5,69.0,63.2,58.5,94,76,54,29.89,29.69,30,9,30,0.00
2013-5-19,75.7,68.5,62.8,69.3,64.0,60.8,94,86,75,29.70,29.49,27,7,27,1.03
2013-5-20,70.2,63.3,58.5,61.2,58.4,54.5,94,85,61,29.50,29.43,34,10,34,0.36
2013-5-21,62.7,59.0,52.5,58.4,54.6,50.2,95,86,71,29.66,29.43,21,6,21,0.00
2013-5-22,52.4,49.2,45.7,50.3,46.9,44.1,95,92,80,29.99,29.65,24,10,24,0.09
2013-5-23,62.2,53.3,44.2,46.2,41.2,36.8,88,66,40,30.32,29.99,21,7,21,0.00
2013-5-24,70.9,56.0,40.2,53.5,43.6,34.5,89,66,37,30.33,30.10,28,8,28,0.12
2013-5-25,56.0,53.8,51.3,51.2,49.7,48.1,92,86,79,30.18,30.10,31,14,31,0.02
2013-5-26,54.0,51.5,47.9,51.3,48.9,45.7,96,91,88,30.16,29.93,31,11,31,0.16
2013-5-27,58.9,55.4,52.6,55.3,53.4,50.5,96,93,88,29.99,29.77,27,7,27,0.13
2013-5-28,62.7,57.3,53.9,58.7,55.3,53.0,97,93,86,29.77,29.67,13,2,13,0.01
2013-5-29,76.7,63.9,51.1,69.7,60.7,49.9,98,90,75,29.76,29.54,25,8,27,0.09
2013-5-30,72.7,67.7,63.9,65.6,63.1,59.3,95,85,75,29.57,29.41,32,14,32,0.05
2013-5-31,72.3,65.3,57.6,62.2,54.1,51.2,88,68,51,29.52,29.43,41,14,41,0.06
2013-6-1,68.5,59.0,53.7,58.2,52.4,43.4,89,79,65,29.96,29.50,34,12,34,0.00
2013-6-2,67.2,57.5,49.4,47.7,43.1,38.9,86,61,36,30.08,29.95,20,6,20,0.00
2013-6-3,72.5,61.1,45.1,49.9,45.6,41.8,90,59,39,30.03,29.86,27,6,27,0.00
2013-6-4,63.8,59.3,55.9,56.6,53.3,46.3,92,81,54,30.00,29.89,26,10,26,0.15
2013-6-5,66.8,60.4,53.7,53.6,51.5,48.2,95,74,55,30.01,29.90,17,6,18,0.00
2013-6-6,61.1,56.4,52.1,52.7,50.7,49.6,92,82,69,30.02,29.94,16,6,17,0.00
2013-6-7,61.1,55.9,53.5,51.7,50.4,49.0,89,82,67,30.04,29.89,7,2,7,0.00
2013-6-8,62.8,60.7,56.0,58.3,55.4,49.6,93,83,71,29.87,29.78,20,8,20,0.36
2013-6-9,69.5,62.2,57.0,64.6,59.5,55.3,95,91,79,29.79,29.64,25,9,25,0.71
2013-6-10,73.8,64.4,57.4,63.9,60.1,56.3,97,86,68,29.85,29.77,16,4,16,0.00
2013-6-11,84.2,70.6,58.3,71.6,64.0,56.9,96,81,57,29.86,29.74,19,3,19,0.01
2013-6-12,74.8,65.9,59.0,68.2,61.7,56.3,94,86,74,29.95,29.65,33,10,33,1.14
2013-6-13,76.3,66.6,54.2,59.9,56.1,50.8,89,70,50,30.09,29.94,16,4,16,0.00
2013-6-14,78.3,69.6,61.3,66.1,61.6,56.7,89,76,62,30.04,29.79,34,10,34,0.05
2013-6-15,79.8,70.7,62.8,69.2,63.7,55.0,94,80,47,29.89,29.80,28,6,28,0.32
2013-6-16,84.6,72.1,56.1,60.5,54.6,49.3,90,59,30,29.92,29.82,22,6,22,0.00
2013-6-17,80.3,71.9,60.0,59.5,56.4,52.5,84,60,40,29.94,29.85,25,7,25,0.00
2013-6-18,77.0,67.4,57.2,62.4,59.0,55.2,93,76,52,30.04,29.93,24,3,24,0.11
2013-6-19,86.0,73.6,59.5,67.4,60.9,56.6,92,67,41,29.99,29.85,22,6,22,0.00
2013-6-20,87.5,79.0,68.7,69.8,66.5,63.0,84,66,53,29.91,29.76,28,11,28,0.00
2013-6-21,83.0,72.8,64.0,74.0,67.0,61.5,93,82,64,29.97,29.69,39,9,39,0.91
2013-6-22,82.6,72.2,63.4,73.1,67.1,61.6,94,85,66,29.97,29.73,18,4,22,0.60
2013-6-23,81.1,74.4,66.1,70.9,67.7,63.3,92,80,62,29.84,29.59,34,9,34,0.23
2013-6-24,76.8,70.0,61.9,71.4,66.3,60.5,96,88,78,29.86,29.73,19,4,19,0.02
2013-6-25,87.5,76.0,66.0,76.3,69.8,63.7,94,82,63,29.76,29.62,23,6,23,0.00
2013-6-26,86.3,77.3,69.0,73.0,67.9,62.7,96,75,48,29.79,29.59,28,6,28,0.00
2013-6-27,85.0,76.1,67.0,66.6,62.2,56.5,89,65,40,29.85,29.76,31,8,31,0.00
2013-6-28,78.0,72.5,65.5,63.3,59.8,56.9,76,65,52,29.84,29.76,37,16,37,0.00
2013-6-29,78.0,69.1,62.0,62.5,58.6,51.6,90,71,44,29.94,29.75,25,10,25,0.05
2013-6-30,78.7,67.9,55.7,58.1,54.2,50.4,88,64,40,30.09,29.94,15,3,21,0.00
2013-7-1,83.7,70.7,55.3,63.8,57.1,52.5,92,65,35,30.16,30.09,7,1,13,0.00
2013-7-2,82.5,71.6,57.5,60.9,57.6,53.6,93,64,40,30.12,30.00,13,1,13,0.00
2013-7-3,82.8,71.0,57.2,62.5,56.6,50.6,93,65,34,30.02,29.89,16,1,16,0.00
2013-7-4,88.3,75.4,60.7,64.3,58.8,55.2,88,59,35,29.90,29.78,24,7,24,0.00
2013-7-5,89.0,76.8,68.9,68.5,62.2,57.4,76,61,43,29.82,29.72,26,10,27,0.03
2013-7-6,90.7,79.1,70.9,71.6,66.0,60.6,72,65,49,29.79,29.71,24,7,24,0.00
2013-7-7,90.8,79.0,67.6,75.1,69.2,63.8,93,73,54,29.85,29.74,31,2,31,0.20
2013-7-8,87.1,77.0,66.1,74.6,70.2,64.6,96,81,58,29.93,29.84,8,1,8,0.00
2013-7-9,83.8,76.8,65.9,72.4,69.3,63.6,95,78,62,29.92,29.68,50,8,50,0.32
2013-7-10,78.8,69.6,58.8,65.1,59.5,56.1,92,72,47,30.05,29.92,21,7,21,0.00
2013-7-11,85.3,71.9,56.0,64.0,59.8,54.3,95,69,44,30.07,29.90,20,6,23,0.00
2013-7-12,89.1,77.8,67.3,69.2,63.4,58.3,75,62,48,29.93,29.80,30,14,32,0.00
2013-7-13,79.3,73.4,66.2,69.3,64.8,62.3,91,75,63,29.99,29.81,27,11,27,0.13
2013-7-14,85.3,74.4,66.9,70.6,65.4,60.1,89,74,50,30.13,29.96,18,7,18,0.01
2013-7-15,87.3,76.6,63.6,71.1,66.8,61.0,93,73,51,30.18,30.08,20,4,20,0.00
2013-7-16,91.3,80.8,70.1,73.1,69.5,67.1,93,71,48,30.16,30.10,23,6,23,0.00
2013-7-17,93.0,81.6,68.3,72.9,69.7,65.5,93,69,47,30.19,30.05,21,5,21,0.00
2013-7-18,93.3,83.5,72.2,73.4,70.6,68.4,88,67,46,30.05,29.72,32,11,32,0.00
2013-7-19,83.5,78.1,65.1,71.0,65.2,60.4,86,65,49,29.85,29.69,26,10,26,0.00
2013-7-20,82.6,71.2,60.3,67.1,62.9,57.4,93,76,54,29.92,29.83,14,2,14,0.00
2013-7-21,84.3,73.8,65.0,70.5,65.8,61.2,90,77,56,29.88,29.71,16,4,16,0.00
2013-7-22,84.3,73.8,63.7,71.6,65.4,57.9,94,77,54,29.85,29.64,29,10,29,0.00
2013-7-23,76.6,66.0,53.8,59.0,56.5,51.0,93,73,49,29.99,29.83,14,4,14,0.00
2013-7-24,79.6,67.9,55.9,61.1,57.0,53.3,93,71,45,30.04,29.94,17,3,17,0.00
2013-7-25,83.9,72.3,61.9,70.0,62.9,56.2,90,73,54,29.96,29.87,20,4,20,0.06
2013-7-26,69.2,62.8,53.4,63.5,55.0,47.8,90,76,58,30.08,29.88,32,11,32,0.00
2013-7-27,68.8,59.0,50.1,49.2,47.0,43.0,88,66,45,30.09,29.94,29,10,29,0.00
2013-7-28,72.8,59.9,46.2,55.2,49.3,42.5,89,70,48,30.05,29.98,17,5,17,0.00
2013-7-29,78.7,64.8,48.0,58.1,53.1,46.4,96,69,45,30.09,30.01,20,4,20,0.00
2013-7-30,72.4,67.6,61.9,64.8,61.6,57.4,93,81,70,30.05,30.00,10,1,10,0.01
2013-7-31,80.1,67.0,56.4,65.3,59.4,54.3,96,79,46,30.09,29.98,20,4,20,0.02
2013-8-1,84.0,69.2,51.9,65.1,57.5,49.8,95,69,42,30.04,29.83,16,4,17,0.00
2013-8-2,74.3,66.2,55.9,59.6,56.4,52.7,90,72,53,30.03,29.84,15,2,15,0.00
2013-8-3,76.8,63.3,48.2,58.1,53.0,45.9,94,72,44,30.18,30.03,16,3,16,0.00
2013-8-4,76.2,63.4,48.8,60.8,54.8,45.9,93,75,54,30.21,29.93,14,2,14,0.00
2013-8-5,81.0,70.2,61.8,69.7,64.3,59.7,95,83,60,29.98,29.77,35,5,35,1.78
2013-8-6,85.4,71.1,57.0,70.1,63.5,55.6,97,79,51,29.82,29.67,20,4,20,0.01
2013-8-7,73.8,66.5,59.0,61.5,57.6,49.4,95,75,49,30.00,29.76,18,6,18,0.00
2013-8-8,68.5,61.7,56.6,63.1,58.2,53.6,94,88,81,30.06,29.94,17,1,17,0.29
2013-8-9,73.7,64.1,54.5,60.7,56.6,53.4,96,79,54,30.11,29.99,22,5,22,0.01
2013-8-10,76.3,64.7,52.9,64.4,58.1,50.8,94,81,58,30.17,30.03,15,1,15,0.00
2013-8-11,77.8,69.2,63.9,67.5,64.5,61.7,95,86,68,30.05,29.95,13,2,13,0.00
2013-8-12,76.3,67.0,57.3,61.8,58.8,55.0,95,77,51,30.04,29.99,17,5,17,0.00
2013-8-13,73.5,63.6,53.5,59.7,54.1,50.4,94,74,46,30.16,30.04,16,1,16,0.00
2013-8-14,75.5,63.1,49.5,58.9,52.7,47.5,95,72,42,30.18,30.07,17,3,17,0.01
2013-8-15,77.0,64.7,52.5,61.5,55.8,51.0,96,75,47,30.11,30.05,15,2,15,0.00
2013-8-16,76.3,64.4,51.2,60.2,55.9,49.7,96,76,52,30.17,30.11,18,3,18,0.01
2013-8-17,80.8,67.1,53.7,61.4,56.9,50.8,93,72,49,30.16,30.05,24,6,24,0.00
2013-8-18,81.4,68.0,53.3,61.5,57.1,50.5,92,71,46,30.09,29.96,26,7,26,0.00
2013-8-19,86.8,74.7,62.2,72.7,66.1,57.8,88,75,59,30.00,29.82,23,7,23,0.00
2013-8-20,87.0,77.2,67.7,75.6,70.7,65.2,93,81,66,29.84,29.77,18,5,18,0.00
2013-8-21,85.0,77.2,70.7,76.5,72.3,67.9,95,85,69,29.92,29.76,15,3,15,0.00
2013-8-22,81.3,73.3,63.5,73.3,63.2,56.7,95,72,53,30.07,29.92,43,4,43,2.34
2013-8-23,83.4,71.4,57.5,73.3,66.2,55.6,95,84,69,30.08,29.96,21,6,21,0.00
2013-8-24,84.8,78.0,70.8,75.1,71.4,67.5,90,81,68,29.98,29.85,32,13,32,0.00
2013-8-25,92.3,83.2,76.5,77.7,73.8,70.7,87,74,58,29.93,29.85,28,12,28,0.00
2013-8-26,90.3,82.2,77.0,78.1,73.9,70.7,89,76,60,29.91,29.75,20,8,20,0.00
2013-8-27,92.8,84.0,74.1,80.5,75.5,68.6,89,76,63,29.83,29.72,13,2,13,0.00
2013-8-28,89.1,80.7,72.1,78.6,74.9,70.6,95,83,67,29.93,29.83,13,2,13,0.00
2013-8-29,91.2,81.3,72.3,77.2,72.6,67.8,95,77,51,29.92,29.78,22,5,22,0.00
2013-8-30,81.2,74.8,66.2,72.3,69.1,63.3,94,83,65,29.88,29.79,15,4,15,0.00
2013-8-31,86.2,71.8,59.0,72.6,65.6,57.5,97,82,58,29.84,29.68,38,3,38,0.05
2013-9-1,71.1,65.1,55.2,67.0,60.0,52.9,93,84,72,29.98,29.73,22,9,27,0.01
2013-9-2,68.0,58.2,47.4,55.5,52.0,45.9,96,81,62,30.09,29.98,15,4,15,0.00
2013-9-3,80.0,63.0,46.7,65.2,56.4,45.3,96,81,54,30.08,29.96,13,2,13,0.01
2013-9-4,87.3,73.2,59.9,73.1,66.2,58.3,96,80,58,30.08,29.99,13,1,13,0.00
2013-9-5,87.1,74.0,61.3,71.1,65.7,59.0,93,77,49,30.13,30.02,14,3,14,0.00
2013-9-6,92.0,78.2,67.5,72.1,67.9,63.8,90,73,49,30.04,29.79,28,8,28,0.00
2013-9-7,89.4,78.0,67.4,74.6,70.3,65.5,96,78,58,29.91,29.80,15,3,15,0.00
2013-9-8,77.6,71.6,64.9,70.8,67.2,62.6,94,86,78,29.95,29.81,17,5,17,0.00
2013-9-9,94.0,78.5,68.2,73.8,69.1,66.1,96,76,46,29.81,29.58,27,9,27,0.08
2013-9-10,82.3,73.3,65.5,68.2,66.0,63.4,95,79,57,29.95,29.73,14,3,14,0.00
2013-9-11,83.1,72.6,60.7,65.8,60.2,52.9,95,68,39,30.07,29.95,20,5,20,0.00
2013-9-12,74.9,62.4,49.7,54.1,50.1,46.5,90,67,41,30.21,30.06,32,6,32,0.00
2013-9-13,71.3,57.4,42.1,50.9,45.9,40.0,95,69,40,30.25,30.06,14,1,14,0.00
2013-9-14,73.7,58.7,47.9,57.1,50.3,43.6,93,75,43,30.06,29.78,28,8,28,0.38
2013-9-15,63.4,58.6,50.5,56.4,54.6,48.0,96,87,73,30.29,29.80,19,5,19,0.87
2013-9-16,67.3,54.0,40.5,53.6,47.7,38.9,95,81,57,30.39,30.20,16,2,16,0.01
2013-9-17,61.2,55.3,47.6,58.5,52.6,45.7,96,90,82,30.22,29.88,26,9,26,0.00
2013-9-18,86.6,72.2,59.9,74.2,67.1,58.5,97,85,63,29.89,29.60,23,9,23,0.00
2013-9-19,73.3,68.7,61.2,68.3,63.5,52.9,95,84,62,29.84,29.56,31,6,31,0.35
2013-9-20,61.0,55.2,44.9,53.8,49.4,42.5,93,81,69,29.96,29.83,26,10,26,0.00
2013-9-21,68.0,52.7,39.5,49.3,44.7,37.5,95,76,48,30.02,29.88,13,1,13,0.00
2013-9-22,80.5,62.5,46.8,59.2,52.0,44.0,91,71,44,29.91,29.74,26,9,26,0.00
2013-9-23,76.2,63.3,52.3,57.0,52.6,48.9,88,70,44,29.86,29.76,30,11,30,0.00
2013-9-24,71.8,57.8,49.8,58.9,52.3,47.4,93,82,60,29.92,29.85,11,1,13,0.00
2013-9-25,75.4,61.5,48.4,56.6,52.8,46.8,95,76,48,29.93,29.77,19,6,21,0.00
2013-9-26,83.4,69.1,56.4,63.3,58.1,52.1,87,70,48,29.84,29.70,33,14,33,0.00
2013-9-27,83.9,73.8,67.1,63.7,62.1,60.7,83,68,50,29.80,29.69,23,12,29,0.20
2013-9-28,72.6,60.4,46.9,62.7,53.0,42.6,93,77,52,29.93,29.57,32,11,32,0.12
2013-9-29,79.5,61.6,44.4,50.3,45.7,40.5,87,60,33,29.94,29.73,29,9,29,0.00
2013-9-30,82.1,68.3,58.3,55.6,50.6,46.2,68,54,36,29.74,29.52,27,12,27,0.00
2013-10-1,76.0,66.0,47.5,54.2,44.9,33.0,78,50,21,29.97,29.54,31,10,31,0.00
2013-10-2,79.3,60.3,42.7,64.7,46.8,37.8,95,66,28,30.00,29.74,30,7,30,0.95
2013-10-3,61.9,58.9,56.0,60.1,57.4,54.4,97,95,91,29.89,29.77,13,4,14,0.02
2013-10-4,58.5,56.1,53.8,57.4,54.9,52.4,97,96,95,29.93,29.71,24,8,24,0.08
2013-10-5,61.2,50.6,42.0,60.3,43.8,37.7,97,78,59,29.83,29.70,28,7,28,0.00
2013-10-6,51.3,46.9,42.0,49.3,44.3,39.9,96,91,83,29.90,29.70,28,8,28,0.13
2013-10-7,68.8,54.2,43.0,49.5,43.7,39.3,92,70,37,29.99,29.87,18,4,18,0.00
2013-10-8,79.3,62.5,48.9,51.3,46.9,42.8,82,60,35,29.92,29.74,37,13,37,0.00
2013-10-9,76.8,63.4,53.9,55.8,50.2,47.5,81,64,43,29.98,29.87,23,10,23,0.00
2013-10-10,79.2,64.5,51.9,57.4,50.9,46.7,83,63,42,29.98,29.76,31,11,31,0.00
2013-10-11,70.0,63.7,57.9,61.2,55.4,50.9,85,75,66,29.77,29.52,45,17,45,0.29
2013-10-12,60.7,51.2,42.6,43.2,38.7,33.2,85,64,38,30.23,29.77,35,12,35,0.00
2013-10-13,61.9,47.0,32.7,40.4,34.6,29.5,91,65,37,30.44,30.22,8,1,13,0.00
2013-10-14,53.0,46.6,41.8,47.7,40.2,34.7,98,78,63,30.37,29.78,20,6,24,0.96
2013-10-15,53.4,48.8,44.3,51.7,46.9,42.4,95,93,90,29.89,29.61,28,15,28,0.09
2013-10-16,53.6,44.8,35.9,42.8,39.1,31.0,94,82,43,30.01,29.89,21,8,21,0.02
2013-10-17,54.2,42.7,34.7,44.2,38.3,32.6,93,85,61,29.94,29.80,28,8,28,0.02
2013-10-18,51.7,42.3,33.7,38.2,33.7,29.9,92,73,43,30.03,29.88,20,8,21,0.01
2013-10-19,47.2,37.9,28.8,40.3,31.6,25.5,90,79,54,29.88,29.74,33,9,33,0.02
2013-10-20,51.5,39.3,28.8,45.1,34.5,26.0,91,83,73,29.97,29.62,33,11,33,0.03
2013-10-21,41.8,34.6,25.7,29.4,26.1,22.8,90,72,53,30.02,29.97,26,8,26,0.00
2013-10-22,39.4,32.4,24.8,30.8,26.3,21.9,92,79,63,30.10,29.99,19,6,19,0.00
2013-10-23,39.1,34.8,32.1,29.8,26.4,22.9,85,72,54,30.17,30.05,26,9,26,0.00
2013-10-24,46.4,35.8,28.1,33.3,28.4,21.6,90,75,52,30.37,30.17,23,8,23,0.00
2013-10-25,61.5,42.0,22.7,42.7,32.8,20.0,91,72,49,30.38,29.85,32,11,32,0.00
2013-10-26,50.1,39.7,28.3,41.0,30.4,24.4,86,70,52,30.15,29.88,30,12,30,0.00
2013-10-27,59.6,41.8,26.8,39.9,31.3,22.9,88,69,44,30.12,29.81,19,6,19,0.00
2013-10-28,43.6,36.5,30.7,30.7,27.3,23.0,85,70,52,30.41,30.12,20,8,20,0.00
2013-10-29,47.1,39.0,32.6,37.6,32.0,23.7,85,76,66,30.39,30.06,15,6,15,0.02
2013-10-30,50.2,44.4,39.7,49.3,42.9,36.1,100,94,85,30.07,29.70,16,2,16,0.04
2013-10-31,42.8,39.5,37.7,41.7,37.2,35.3,96,91,87,29.70,29.44,18,8,18,0.00
2013-11-1,51.0,42.9,37.3,41.2,38.2,34.4,92,84,66,29.90,29.47,25,11,25,0.01
2013-11-2,51.5,41.3,32.4,39.4,35.5,30.3,92,81,59,30.10,29.90,17,6,17,0.00
2013-11-3,56.4,44.9,33.8,39.2,33.8,30.2,87,67,40,30.07,29.79,41,16,41,0.00
2013-11-4,49.1,43.9,32.2,42.8,37.2,28.3,88,77,65,30.17,29.76,27,10,27,0.14
2013-11-5,39.1,32.2,26.2,33.5,29.1,23.9,95,88,73,30.25,30.06,20,4,20,0.00
2013-11-6,35.4,28.6,22.9,30.0,25.0,20.5,95,86,69,30.24,30.08,21,7,21,0.09
2013-11-7,37.3,28.8,22.3,29.7,24.6,20.1,92,84,68,30.32,30.22,21,7,21,0.02
2013-11-8,46.8,35.7,22.9,41.0,30.6,20.0,93,82,68,30.23,29.64,32,10,32,0.00
2013-11-9,44.7,40.4,32.3,40.8,34.4,26.8,89,79,65,30.30,29.71,33,14,33,0.00
2013-11-10,38.0,33.6,24.7,32.0,28.6,21.4,92,82,74,30.38,30.11,29,6,29,0.00
2013-11-11,35.7,22.7,11.7,31.8,16.0,7.6,92,76,62,30.82,30.14,28,14,28,0.00
2013-11-12,27.2,17.7,6.8,16.3,10.9,3.3,92,75,58,30.88,30.49,17,6,17,0.00
2013-11-13,53.6,37.4,23.4,38.6,28.0,14.6,79,69,55,30.50,29.89,29,10,29,0.00
2013-11-14,57.9,41.1,30.9,43.9,34.8,28.4,91,79,53,29.89,29.77,24,5,24,0.00
2013-11-15,58.1,41.0,26.7,43.4,34.9,24.7,94,80,52,29.85,29.58,22,6,22,0.00
2013-11-16,52.0,43.6,37.2,50.6,41.1,34.8,95,91,81,29.59,29.21,22,7,22,0.02
2013-11-17,46.1,39.6,32.6,39.2,35.6,27.2,93,85,73,29.93,29.31,36,14,36,0.00
2013-11-18,37.0,30.5,23.7,27.5,24.1,19.8,87,77,64,30.27,29.93,27,10,28,0.00
2013-11-19,50.4,38.4,23.2,36.4,30.0,19.1,87,73,55,30.26,29.85,35,15,35,0.00
2013-11-20,47.1,41.8,31.5,36.0,32.8,28.7,93,71,59,30.03,29.81,33,12,33,0.00
2013-11-21,34.2,23.6,17.4,31.9,19.0,11.8,91,82,74,30.62,30.03,33,18,33,0.00
2013-11-22,36.7,19.6,6.6,15.6,8.9,2.8,84,65,33,30.75,30.54,32,11,32,0.00
2013-11-23,16.3,8.3,2.3,4.6,1.1,-1.9,92,73,54,30.96,30.74,23,8,26,0.00
2013-11-24,36.2,13.2,3.5,18.4,5.6,-1.0,92,72,48,30.79,30.17,33,10,33,0.00